Time;durP1;ratioP1;P1;durP2;ratioP2;P2;SDS_P1;SDS_P2;PMS_P1;PMS_P2;Temp;Humidity;BMP_temperature;BMP_pressure;BME280_temperature;BME280_humidity;BME280_pressure;Samples;Min_cycle;Max_cycle;Signal;HPM_P1;HPM_P2
2021/04/24 00:02:06;;;;;;;30.42;15.80;;;2.20;99.90;;;;;;6283672;22;20390;-95
2021/04/24 00:04:33;;;;;;;26.77;15.88;;;2.10;99.90;;;;;;6283470;22;20707;-95
2021/04/24 00:06:59;;;;;;;26.13;16.13;;;2.00;99.90;;;;;;6282651;22;20485;-95
2021/04/24 00:09:26;;;;;;;31.15;17.08;;;2.00;99.90;;;;;;6284069;22;20383;-95
2021/04/24 00:11:53;;;;;;;30.83;16.75;;;1.90;99.90;;;;;;6283627;22;20469;-95
2021/04/24 00:14:20;;;;;;;30.67;16.50;;;1.90;99.90;;;;;;6283664;22;20442;-96
2021/04/24 00:16:48;;;;;;;33.85;17.17;;;1.80;99.90;;;;;;6283595;22;20418;-95
2021/04/24 00:19:15;;;;;;;31.58;17.15;;;1.80;99.90;;;;;;6283349;22;20382;-95
2021/04/24 00:21:43;;;;;;;34.55;17.83;;;1.70;99.90;;;;;;6282897;22;20390;-95
2021/04/24 00:43:43;;;;;;;31.73;17.83;;;1.90;99.90;;;;;;6337202;22;20707;-96
2021/04/24 00:51:24;;;;;;;34.38;19.35;;;1.60;99.90;;;;;;6335604;22;20345;-96
2021/04/24 00:54:36;;;;;;;31.63;18.15;;;1.60;99.90;;;;;;6343327;22;20417;-96
2021/04/24 00:57:59;;;;;;;32.00;19.38;;;1.50;99.90;;;;;;6329759;22;20362;-96
2021/04/24 01:01:45;;;;;;;31.00;17.92;;;1.40;99.90;;;;;;6302134;22;20386;-96
2021/04/24 01:04:29;;;;;;;34.30;18.73;;;1.60;99.90;;;;;;6319215;22;20380;-96
2021/04/24 01:06:56;;;;;;;30.90;18.57;;;1.70;99.90;;;;;;6366297;22;20380;-96
2021/04/24 01:09:25;;;;;;;33.97;18.42;;;1.80;99.90;;;;;;6366850;22;20376;-96
2021/04/24 01:11:55;;;;;;;27.25;17.92;;;1.60;99.90;;;;;;6357254;22;20396;-96
2021/04/24 01:14:23;;;;;;;35.45;19.48;;;1.40;99.90;;;;;;6350838;22;20373;-96
2021/04/24 01:16:54;;;;;;;32.85;19.58;;;1.30;99.90;;;;;;6322229;22;20389;-96
2021/04/24 01:19:23;;;;;;;32.40;19.07;;;1.20;99.90;;;;;;6349429;22;20396;-96
2021/04/24 01:21:52;;;;;;;32.78;19.58;;;1.20;99.90;;;;;;6318326;22;20449;-96
2021/04/24 01:24:20;;;;;;;41.45;19.63;;;1.10;99.90;;;;;;6318287;22;20442;-96
2021/04/24 01:26:48;;;;;;;35.50;21.23;;;1.00;99.90;;;;;;6315233;22;20381;-95
2021/04/24 01:29:15;;;;;;;35.13;21.90;;;0.90;99.90;;;;;;6315905;22;20379;-96
2021/04/24 01:31:42;;;;;;;38.80;21.25;;;1.00;99.90;;;;;;6320646;22;20483;-95
2021/04/24 01:34:09;;;;;;;30.77;19.35;;;1.10;99.90;;;;;;6295778;22;20380;-96
2021/04/24 01:36:36;;;;;;;36.58;20.25;;;1.30;99.90;;;;;;6318579;22;20377;-96
2021/04/24 01:39:06;;;;;;;32.75;18.75;;;1.40;99.90;;;;;;6317528;22;20845;-96
2021/04/24 01:41:33;;;;;;;30.92;19.48;;;1.60;99.90;;;;;;6316780;22;20405;-96
2021/04/24 01:44:01;;;;;;;33.92;19.55;;;1.60;99.90;;;;;;6318972;22;20377;-96
2021/04/24 01:46:39;;;;;;;33.00;18.80;;;1.60;99.90;;;;;;6324749;22;20403;-96
2021/04/24 01:49:06;;;;;;;32.70;19.23;;;1.60;99.90;;;;;;6302460;22;20380;-96
2021/04/24 01:51:47;;;;;;;30.67;19.30;;;1.60;99.90;;;;;;6325528;22;20385;-96
2021/04/24 01:54:18;;;;;;;29.02;19.00;;;1.60;99.90;;;;;;6315408;22;20480;-96
2021/04/24 01:56:55;;;;;;;31.42;19.42;;;1.60;99.90;;;;;;6320129;22;20388;-96
2021/04/24 01:59:26;;;;;;;31.77;17.95;;;1.70;99.90;;;;;;6314573;22;20393;-96
2021/04/24 02:01:54;;;;;;;31.27;17.42;;;1.70;99.90;;;;;;6315335;22;20471;-96
2021/04/24 02:04:24;;;;;;;31.03;17.70;;;1.80;99.90;;;;;;6314780;22;20381;-95
2021/04/24 02:06:52;;;;;;;29.58;18.20;;;1.80;99.90;;;;;;6314451;22;20475;-96
2021/04/24 02:09:19;;;;;;;29.13;18.30;;;1.80;99.90;;;;;;6316350;22;20397;-96
2021/04/24 02:12:07;;;;;;;31.50;17.30;;;1.70;99.90;;;;;;6316808;22;20397;-95
2021/04/24 02:14:44;;;;;;;33.53;17.35;;;1.70;99.90;;;;;;6313902;22;20495;-96
2021/04/24 02:17:13;;;;;;;31.50;16.75;;;1.70;99.90;;;;;;6312844;22;20376;-96
2021/04/24 02:19:42;;;;;;;28.98;16.35;;;1.80;99.90;;;;;;6312595;22;20381;-96
2021/04/24 02:22:10;;;;;;;30.40;16.95;;;1.80;99.90;;;;;;6312108;22;20866;-96
2021/04/24 02:24:51;;;;;;;26.17;17.02;;;1.80;99.90;;;;;;6315285;22;20404;-95
2021/04/24 02:27:18;;;;;;;26.13;17.03;;;1.80;99.90;;;;;;6315066;22;20477;-95
2021/04/24 02:29:46;;;;;;;31.48;16.90;;;1.60;99.90;;;;;;6314593;22;20381;-95
2021/04/24 02:32:14;;;;;;;27.50;16.13;;;1.50;99.90;;;;;;6314199;22;20393;-95
2021/04/24 02:34:45;;;;;;;29.23;16.02;;;1.60;99.90;;;;;;6315186;22;20412;-95
2021/04/24 02:37:14;;;;;;;29.60;15.90;;;1.70;99.90;;;;;;6317176;22;20472;-96
2021/04/24 02:39:48;;;;;;;27.48;15.93;;;1.70;99.90;;;;;;6323472;22;20440;-96
2021/04/24 02:42:21;;;;;;;30.45;16.23;;;1.70;99.90;;;;;;6322465;22;20412;-96
2021/04/24 02:44:49;;;;;;;27.60;16.02;;;1.70;99.90;;;;;;6319001;22;20857;-96
2021/04/24 02:47:17;;;;;;;26.08;16.52;;;1.70;99.90;;;;;;6316153;22;20381;-96
2021/04/24 02:49:45;;;;;;;29.10;16.30;;;1.60;99.90;;;;;;6315362;22;20377;-96
2021/04/24 02:52:14;;;;;;;27.60;16.63;;;1.50;99.90;;;;;;6314652;22;20580;-95
2021/04/24 02:54:41;;;;;;;31.27;16.52;;;1.50;99.90;;;;;;6314720;22;20404;-96
2021/04/24 02:57:08;;;;;;;27.33;16.75;;;1.40;99.90;;;;;;6314797;22;20381;-96
2021/04/24 02:59:37;;;;;;;32.83;17.23;;;1.40;99.90;;;;;;6330788;22;20364;-95
2021/04/24 03:02:04;;;;;;;29.08;17.33;;;1.40;99.90;;;;;;6338975;22;20392;-95
2021/04/24 03:04:31;;;;;;;29.35;16.73;;;1.30;99.90;;;;;;6329405;22;20412;-96
2021/04/24 03:06:57;;;;;;;30.80;16.65;;;1.30;99.90;;;;;;6309052;22;20425;-96
2021/04/24 03:09:24;;;;;;;33.00;16.08;;;1.30;99.90;;;;;;6310378;22;20461;-96
2021/04/24 03:11:51;;;;;;;27.50;15.73;;;1.30;99.90;;;;;;6311165;22;20875;-96
2021/04/24 03:14:18;;;;;;;28.55;15.75;;;1.30;99.90;;;;;;6311251;22;20465;-96
2021/04/24 03:16:46;;;;;;;28.38;14.90;;;1.40;99.90;;;;;;6317976;22;20386;-96
2021/04/24 03:19:13;;;;;;;32.00;15.70;;;1.40;99.90;;;;;;6318844;22;20451;-95
2021/04/24 03:21:39;;;;;;;27.17;15.77;;;1.40;99.90;;;;;;6318434;22;20382;-96
2021/04/24 03:24:07;;;;;;;26.33;15.23;;;1.50;99.90;;;;;;6319340;22;20386;-95
2021/04/24 03:26:33;;;;;;;25.13;14.32;;;1.50;99.90;;;;;;6312624;22;20389;-96
2021/04/24 03:29:00;;;;;;;26.90;15.30;;;1.50;99.90;;;;;;6307367;22;20506;-95
2021/04/24 03:31:27;;;;;;;29.35;15.93;;;1.40;99.90;;;;;;6305957;22;20407;-95
2021/04/24 03:33:54;;;;;;;26.65;16.10;;;1.40;99.90;;;;;;6306478;22;20382;-96
2021/04/24 03:36:22;;;;;;;27.65;16.75;;;1.30;99.90;;;;;;6306031;22;20712;-96
2021/04/24 03:38:49;;;;;;;30.33;16.33;;;1.30;99.90;;;;;;6306698;22;20413;-96
2021/04/24 03:41:16;;;;;;;25.80;15.88;;;1.20;99.90;;;;;;6306566;22;20724;-96
2021/04/24 03:43:44;;;;;;;38.90;20.00;;;1.20;99.90;;;;;;6306556;22;20382;-95
2021/04/24 03:46:12;;;;;;;30.13;17.35;;;1.20;99.90;;;;;;6306374;22;20379;-95
2021/04/24 03:48:40;;;;;;;26.88;16.10;;;1.20;99.90;;;;;;6306599;22;20383;-95
2021/04/24 03:51:08;;;;;;;23.90;15.77;;;1.20;99.90;;;;;;6308477;22;20474;-96
2021/04/24 03:53:35;;;;;;;26.83;16.95;;;1.20;99.90;;;;;;6308769;22;20391;-96
2021/04/24 03:56:01;;;;;;;29.58;16.42;;;1.20;99.90;;;;;;6309397;22;20410;-96
2021/04/24 03:58:28;;;;;;;29.83;16.23;;;1.20;99.90;;;;;;6312973;22;20469;-96
2021/04/24 04:00:57;;;;;;;28.20;15.57;;;1.20;99.90;;;;;;6289917;22;20410;-96
2021/04/24 04:03:26;;;;;;;27.30;15.52;;;1.30;99.90;;;;;;6313743;22;20421;-96
2021/04/24 04:05:53;;;;;;;26.33;15.27;;;1.30;99.90;;;;;;6314910;22;20471;-96
2021/04/24 04:08:21;;;;;;;24.02;16.10;;;1.40;99.90;;;;;;6312720;22;20461;-96
2021/04/24 04:10:51;;;;;;;30.10;16.45;;;1.50;99.90;;;;;;6287505;22;20852;-95
2021/04/24 04:13:19;;;;;;;27.08;16.17;;;1.40;99.90;;;;;;6313610;22;20440;-96
2021/04/24 04:15:45;;;;;;;25.90;16.07;;;1.40;99.90;;;;;;6314540;22;20473;-96
2021/04/24 04:18:17;;;;;;;29.25;17.25;;;1.40;99.90;;;;;;6312304;22;20387;-96
2021/04/24 04:20:49;;;;;;;28.03;15.93;;;1.40;99.90;;;;;;6321811;22;20398;-95
2021/04/24 04:23:22;;;;;;;30.13;16.42;;;1.50;99.90;;;;;;6317566;22;20482;-95
2021/04/24 04:25:51;;;;;;;27.85;16.05;;;1.60;99.90;;;;;;6309363;22;20405;-95
2021/04/24 04:28:19;;;;;;;26.20;15.30;;;1.70;99.90;;;;;;6289100;22;20409;-94
2021/04/24 04:30:48;;;;;;;30.33;15.63;;;1.80;99.90;;;;;;6313431;22;20441;-96
2021/04/24 04:33:15;;;;;;;28.80;15.82;;;1.90;99.90;;;;;;6312611;22;20853;-96
2021/04/24 04:35:43;;;;;;;26.15;15.20;;;1.90;99.90;;;;;;6338931;22;20381;-95
2021/04/24 04:38:10;;;;;;;28.27;16.10;;;1.90;99.90;;;;;;6313691;22;20381;-94
2021/04/24 04:40:37;;;;;;;28.02;16.42;;;1.90;99.90;;;;;;6313431;22;20384;-96
2021/04/24 04:43:05;;;;;;;27.33;15.82;;;2.00;99.90;;;;;;6313312;22;20376;-96
2021/04/24 04:45:32;;;;;;;25.70;15.60;;;2.00;99.90;;;;;;6312946;22;20407;-95
2021/04/24 04:48:00;;;;;;;29.88;16.02;;;2.10;99.90;;;;;;6339493;22;20383;-95
2021/04/24 04:50:33;;;;;;;28.20;15.20;;;2.10;99.90;;;;;;6314743;22;20388;-96
2021/04/24 04:53:00;;;;;;;30.98;15.30;;;2.30;99.90;;;;;;6342752;22;20492;-96
2021/04/24 04:55:27;;;;;;;31.08;16.02;;;2.40;99.90;;;;;;6364183;22;20373;-96
2021/04/24 04:57:57;;;;;;;32.03;16.23;;;2.50;99.90;;;;;;6366531;22;20407;-96
2021/04/24 05:00:26;;;;;;;24.33;15.27;;;2.50;99.90;;;;;;6319911;22;20372;-96
2021/04/24 05:02:53;;;;;;;27.25;15.15;;;2.50;99.90;;;;;;6341611;22;20389;-95
2021/04/24 05:05:21;;;;;;;30.85;15.18;;;2.60;99.90;;;;;;6342825;22;20415;-96
2021/04/24 05:07:49;;;;;;;29.23;15.25;;;2.70;99.90;;;;;;6352980;22;20396;-95
2021/04/24 05:10:23;;;;;;;26.90;15.80;;;2.80;99.90;;;;;;6365061;22;20395;-96
2021/04/24 05:12:49;;;;;;;29.57;15.60;;;2.90;99.90;;;;;;6332699;22;20392;-96
2021/04/24 05:15:23;;;;;;;26.48;14.40;;;3.00;99.90;;;;;;6321986;22;20392;-96
2021/04/24 05:17:50;;;;;;;24.02;14.43;;;3.10;99.90;;;;;;6318032;22;20410;-96
2021/04/24 05:20:18;;;;;;;28.35;15.38;;;3.20;99.90;;;;;;6316715;22;20377;-96
2021/04/24 05:22:54;;;;;;;27.60;15.63;;;3.30;99.90;;;;;;6315950;22;20380;-96
2021/04/24 05:25:21;;;;;;;27.15;14.55;;;3.40;99.90;;;;;;6315511;22;20388;-96
2021/04/24 05:27:48;;;;;;;23.63;14.07;;;3.50;99.90;;;;;;6313104;22;20387;-96
2021/04/24 05:30:16;;;;;;;26.48;14.85;;;3.60;99.90;;;;;;6314295;22;20460;-95
2021/04/24 05:32:44;;;;;;;25.85;15.02;;;3.70;99.90;;;;;;6313424;22;20400;-95
2021/04/24 05:35:12;;;;;;;24.77;14.25;;;3.80;99.90;;;;;;6316426;22;20480;-94
2021/04/24 05:37:38;;;;;;;25.60;13.82;;;4.00;99.90;;;;;;6313966;22;20381;-96
2021/04/24 05:40:06;;;;;;;24.87;12.63;;;4.10;99.90;;;;;;6330683;22;20387;-95
2021/04/24 05:42:34;;;;;;;25.15;13.88;;;4.10;99.90;;;;;;6327280;22;20398;-96
2021/04/24 05:45:10;;;;;;;25.92;13.00;;;4.20;99.90;;;;;;6316201;22;20476;-95
2021/04/24 05:47:42;;;;;;;22.42;13.55;;;4.20;99.90;;;;;;6319248;22;20416;-96
2021/04/24 05:50:47;;;;;;;23.23;13.15;;;4.30;99.90;;;;;;6326935;22;20372;-95
2021/04/24 07:20:34;;;;;;;16.70;9.23;;;13.80;55.00;;;;;;6362768;22;20372;-94
2021/04/24 07:35:02;;;;;;;17.13;9.80;;;13.90;58.00;;;;;;6356763;22;20418;-96
2021/04/24 07:37:30;;;;;;;17.13;10.00;;;13.10;60.30;;;;;;6325728;22;20926;-96
2021/04/24 07:40:00;;;;;;;19.55;9.70;;;13.00;61.30;;;;;;6326205;22;20388;-95
2021/04/24 07:42:32;;;;;;;19.70;9.57;;;12.80;61.30;;;;;;6324226;22;20778;-95
2021/04/24 07:45:01;;;;;;;16.92;9.63;;;12.60;61.90;;;;;;6325269;22;20372;-95
2021/04/24 07:48:03;;;;;;;;;;;;;;;;;;;;;
2021/04/24 07:50:49;;;;;;;17.70;9.80;;;12.60;61.20;;;;;;6361565;22;20361;-96
2021/04/24 07:53:50;;;;;;;16.90;9.43;;;12.80;63.70;;;;;;6338125;22;20393;-96
2021/04/24 07:56:34;;;;;;;16.93;9.90;;;12.50;63.00;;;;;;6307856;22;20368;-95
2021/04/24 07:59:14;;;;;;;24.05;10.65;;;11.90;63.70;;;;;;6331003;22;20381;-95
2021/04/24 08:01:44;;;;;;;19.42;11.25;;;11.60;67.80;;;;;;6359349;22;20393;-95
2021/04/24 08:04:11;;;;;;;19.83;10.35;;;11.70;67.00;;;;;;6331575;22;20385;-95
2021/04/24 08:06:47;;;;;;;19.73;10.27;;;11.60;67.50;;;;;;6356114;22;20373;-96
2021/04/24 08:23:00;;;;;;;17.50;9.68;;;12.70;66.00;;;;;;6380597;22;20462;-95
2021/04/24 08:26:06;;;;;;;15.85;8.63;;;13.20;65.50;;;;;;6368035;22;20381;-96
2021/04/24 08:28:36;;;;;;;20.42;9.50;;;14.00;60.90;;;;;;6388092;22;20669;-95
2021/04/24 08:31:03;;;;;;;22.23;8.85;;;13.70;61.20;;;;;;6357008;22;20447;-96
2021/04/24 08:33:57;;;;;;;14.63;8.50;;;13.90;59.90;;;;;;6356176;22;20407;-96
2021/04/24 08:36:25;;;;;;;17.33;9.10;;;13.80;58.70;;;;;;6355849;22;20676;-94
2021/04/24 08:38:52;;;;;;;18.10;9.23;;;13.40;59.40;;;;;;6345811;22;20478;-96
2021/04/24 08:41:19;;;;;;;21.42;9.02;;;13.10;63.10;;;;;;6346037;22;20935;-95
2021/04/24 10:33:00;;;;;;;12.25;6.93;;;13.90;48.70;;;;;;6322118;22;20420;-95
2021/04/24 10:36:03;;;;;;;12.57;7.43;;;13.80;51.50;;;;;;6302066;22;20421;-96
2021/04/24 10:48:25;;;;;;;8.65;4.75;;;14.60;51.40;;;;;;6304984;22;20390;-96
2021/04/24 10:51:57;;;;;;;10.07;5.68;;;14.70;40.50;;;;;;6222990;23;20410;-95
2021/04/24 11:18:48;;;;;;;15.82;7.95;;;16.00;52.20;;;;;;6347052;22;20384;-95
2021/04/24 12:18:51;;;;;;;12.52;6.90;;;18.00;41.10;;;;;;6335204;22;20388;-95
2021/04/24 12:21:25;;;;;;;13.18;6.70;;;18.10;45.30;;;;;;6314839;22;20406;-96
2021/04/24 12:23:52;;;;;;;11.50;7.20;;;16.90;44.60;;;;;;6316396;22;20470;-95
2021/04/24 12:26:27;;;;;;;12.00;7.15;;;16.50;46.40;;;;;;6317166;22;20426;-93
2021/04/24 12:28:56;;;;;;;13.57;7.47;;;16.00;46.10;;;;;;6318652;22;20745;-94
2021/04/24 12:31:35;;;;;;;15.03;7.90;;;16.00;45.80;;;;;;6318861;22;20381;-95
2021/04/24 12:37:34;;;;;;;10.70;6.20;;;16.70;47.10;;;;;;6349784;22;20399;-94
2021/04/24 12:40:16;;;;;;;11.38;6.70;;;18.00;45.30;;;;;;6338562;22;20376;-95
2021/04/24 12:42:43;;;;;;;12.10;6.07;;;18.00;41.40;;;;;;6322418;22;20390;-94
2021/04/24 12:45:16;;;;;;;14.23;7.43;;;17.50;39.10;;;;;;6319360;22;20395;-94
2021/04/24 12:47:47;;;;;;;12.98;6.75;;;17.70;42.40;;;;;;6323932;22;20403;-95
2021/04/24 12:54:31;;;;;;;7.88;4.80;;;18.40;43.30;;;;;;6341214;22;20392;-95
2021/04/24 12:57:19;;;;;;;8.95;5.03;;;19.20;35.70;;;;;;6317557;22;20490;-93
2021/04/24 17:00:02;;;;;;;8.10;4.77;;;14.90;32.20;;;;;;6362009;22;20343;-94
2021/04/24 19:03:00;;;;;;;13.90;6.25;;;7.40;75.20;;;;;;6350354;22;20381;-96
2021/04/24 19:06:01;;;;;;;11.63;6.32;;;7.30;77.20;;;;;;6357621;22;20422;-96
2021/04/24 19:08:49;;;;;;;12.55;6.18;;;7.20;81.80;;;;;;6346607;22;20522;-96
2021/04/24 19:11:20;;;;;;;12.73;6.65;;;7.10;83.00;;;;;;6299793;22;20372;-96
2021/04/24 19:13:49;;;;;;;12.60;6.80;;;7.10;84.70;;;;;;6324712;22;20392;-95
2021/04/24 19:16:40;;;;;;;11.43;6.20;;;7.10;85.50;;;;;;6334247;22;20395;-96
2021/04/24 19:19:26;;;;;;;14.77;6.68;;;7.00;89.40;;;;;;6358087;22;20407;-96
2021/04/24 19:22:12;;;;;;;14.55;6.30;;;6.90;89.90;;;;;;6324962;22;20369;-96
2021/04/24 19:24:42;;;;;;;12.70;6.10;;;6.80;90.30;;;;;;6301692;22;20366;-96
2021/04/24 19:27:11;;;;;;;13.98;6.03;;;6.80;90.70;;;;;;6327056;22;20382;-96
2021/04/24 20:55:43;;;;;;;10.52;5.35;;;6.30;83.40;;;;;;6317457;22;20387;-96
2021/04/24 21:19:04;;;;;;;13.80;5.47;;;6.30;83.50;;;;;;6220381;22;20594;-95
2021/04/24 21:37:26;;;;;;;9.98;5.00;;;5.60;87.10;;;;;;6321525;22;20395;-95
2021/04/24 21:44:38;;;;;;;12.00;5.35;;;5.70;86.00;;;;;;6312089;22;20693;-94
2021/04/24 21:48:12;;;;;;;10.88;5.63;;;5.70;90.10;;;;;;6236085;22;20917;-95
2021/04/24 22:17:55;;;;;;;12.77;6.32;;;5.30;90.80;;;;;;6187868;23;20469;-96
